Terminal Aerodrome Forecast
Issued by NWS

Home | Current Version | Previous Version | Text Only | Print | Product List | Glossary On
Versions: 1 2 3 4 5 6 7 8 9 10 11 12 13 14 15 16 17 18
834
FTUS46 KPDT 051222 AAA
TAFBDN
TAF AMD
KBDN 051222Z 0512/0612 VRB03KT 3SM BR FEW050 BKN130
     FM051500 32004KT P6SM SCT050 BKN110
     FM051700 36005KT P6SM VCSH SCT050 BKN100
     FM052000 36009KT P6SM -SHRA BKN045 BKN080
      TEMPO 0522/0601 -TSRA BKN045CB OVC070
     FM060400 34011G17KT P6SM VCSH SCT050 BKN080=

USA.gov is the U.S. government's official web portal to all federal, state and local government web resources and services.